sensor_id;sensor_type;location;lat;lon;timestamp;temperature;humidity
23081;DHT22;72373;50.562;8.498;2023-08-30T00:00:40;13.50;99.90
23081;DHT22;72373;50.562;8.498;2023-08-30T00:03:05;13.60;99.90
23081;DHT22;72373;50.562;8.498;2023-08-30T00:10:45;13.30;99.90
23081;DHT22;72373;50.562;8.498;2023-08-30T00:13:11;13.20;99.90
23081;DHT22;72373;50.562;8.498;2023-08-30T00:15:37;13.20;99.90
23081;DHT22;72373;50.562;8.498;2023-08-30T00:18:02;13.10;99.90
23081;DHT22;72373;50.562;8.498;2023-08-30T00:20:28;13.10;99.90
23081;DHT22;72373;50.562;8.498;2023-08-30T00:22:53;13.00;99.90
23081;DHT22;72373;50.562;8.498;2023-08-30T00:25:19;13.00;99.90
23081;DHT22;72373;50.562;8.498;2023-08-30T00:27:44;13.00;99.90
23081;DHT22;72373;50.562;8.498;2023-08-30T00:30:10;12.90;99.90
23081;DHT22;72373;50.562;8.498;2023-08-30T00:32:37;13.00;99.90
23081;DHT22;72373;50.562;8.498;2023-08-30T00:35:02;13.00;99.90
23081;DHT22;72373;50.562;8.498;2023-08-30T00:37:28;13.00;99.90
23081;DHT22;72373;50.562;8.498;2023-08-30T00:39:53;13.00;99.90
23081;DHT22;72373;50.562;8.498;2023-08-30T00:42:19;13.00;99.90
23081;DHT22;72373;50.562;8.498;2023-08-30T00:44:44;13.00;99.90
23081;DHT22;72373;50.562;8.498;2023-08-30T00:47:10;13.30;99.90
23081;DHT22;72373;50.562;8.498;2023-08-30T00:49:36;13.10;99.90
23081;DHT22;72373;50.562;8.498;2023-08-30T00:52:07;13.10;99.90
23081;DHT22;72373;50.562;8.498;2023-08-30T00:54:34;13.10;99.90
23081;DHT22;72373;50.562;8.498;2023-08-30T00:57:00;13.40;99.90
23081;DHT22;72373;50.562;8.498;2023-08-30T00:59:27;13.10;99.90
23081;DHT22;72373;50.562;8.498;2023-08-30T01:01:53;13.10;99.90
23081;DHT22;72373;50.562;8.498;2023-08-30T01:04:20;13.10;99.90
23081;DHT22;72373;50.562;8.498;2023-08-30T01:06:45;13.10;99.90
23081;DHT22;72373;50.562;8.498;2023-08-30T01:09:11;13.10;99.90
23081;DHT22;72373;50.562;8.498;2023-08-30T01:12:15;13.10;99.90
23081;DHT22;72373;50.562;8.498;2023-08-30T01:17:10;13.40;99.90
23081;DHT22;72373;50.562;8.498;2023-08-30T01:19:58;13.10;99.90
23081;DHT22;72373;50.562;8.498;2023-08-30T01:23:06;13.10;99.90
23081;DHT22;72373;50.562;8.498;2023-08-30T01:26:04;13.00;99.90
23081;DHT22;72373;50.562;8.498;2023-08-30T01:28:33;13.10;99.90
23081;DHT22;72373;50.562;8.498;2023-08-30T01:30:59;13.10;99.90
23081;DHT22;72373;50.562;8.498;2023-08-30T01:33:25;13.10;99.90
23081;DHT22;72373;50.562;8.498;2023-08-30T01:35:54;13.10;99.90
23081;DHT22;72373;50.562;8.498;2023-08-30T01:38:20;13.10;99.90
23081;DHT22;72373;50.562;8.498;2023-08-30T01:40:47;13.10;99.90
23081;DHT22;72373;50.562;8.498;2023-08-30T01:43:14;13.10;99.90
23081;DHT22;72373;50.562;8.498;2023-08-30T01:45:42;13.20;99.90
23081;DHT22;72373;50.562;8.498;2023-08-30T01:48:10;13.20;99.90
23081;DHT22;72373;50.562;8.498;2023-08-30T01:50:38;13.20;99.90
23081;DHT22;72373;50.562;8.498;2023-08-30T01:53:04;13.20;99.90
23081;DHT22;72373;50.562;8.498;2023-08-30T01:55:32;13.20;99.90
23081;DHT22;72373;50.562;8.498;2023-08-30T01:57:58;13.20;99.90
23081;DHT22;72373;50.562;8.498;2023-08-30T02:00:24;13.20;99.90
23081;DHT22;72373;50.562;8.498;2023-08-30T02:02:49;13.20;99.90
23081;DHT22;72373;50.562;8.498;2023-08-30T02:05:15;13.30;99.90
23081;DHT22;72373;50.562;8.498;2023-08-30T02:10:35;13.20;99.90
23081;DHT22;72373;50.562;8.498;2023-08-30T02:13:05;13.20;99.90
23081;DHT22;72373;50.562;8.498;2023-08-30T02:15:33;13.20;99.90
23081;DHT22;72373;50.562;8.498;2023-08-30T02:17:59;13.20;99.90
23081;DHT22;72373;50.562;8.498;2023-08-30T02:20:25;13.20;99.90
23081;DHT22;72373;50.562;8.498;2023-08-30T02:22:51;13.30;99.90
23081;DHT22;72373;50.562;8.498;2023-08-30T02:25:16;13.20;99.90
23081;DHT22;72373;50.562;8.498;2023-08-30T02:27:42;13.30;99.90
23081;DHT22;72373;50.562;8.498;2023-08-30T02:30:08;13.30;99.90
23081;DHT22;72373;50.562;8.498;2023-08-30T02:32:34;13.30;99.90
23081;DHT22;72373;50.562;8.498;2023-08-30T02:34:59;13.30;99.90
23081;DHT22;72373;50.562;8.498;2023-08-30T02:37:25;13.30;99.90
23081;DHT22;72373;50.562;8.498;2023-08-30T02:39:51;13.30;99.90
23081;DHT22;72373;50.562;8.498;2023-08-30T02:42:16;13.30;99.90
23081;DHT22;72373;50.562;8.498;2023-08-30T02:44:42;13.30;99.90
23081;DHT22;72373;50.562;8.498;2023-08-30T02:47:07;13.50;99.90
23081;DHT22;72373;50.562;8.498;2023-08-30T02:49:33;13.30;99.90
23081;DHT22;72373;50.562;8.498;2023-08-30T02:51:59;13.30;99.90
23081;DHT22;72373;50.562;8.498;2023-08-30T02:54:24;13.30;99.90
23081;DHT22;72373;50.562;8.498;2023-08-30T02:56:50;13.30;99.90
23081;DHT22;72373;50.562;8.498;2023-08-30T02:59:15;13.30;99.90
23081;DHT22;72373;50.562;8.498;2023-08-30T03:01:41;13.30;99.90
23081;DHT22;72373;50.562;8.498;2023-08-30T03:04:07;13.30;99.90
23081;DHT22;72373;50.562;8.498;2023-08-30T03:06:33;13.30;99.90
23081;DHT22;72373;50.562;8.498;2023-08-30T03:08:59;13.30;99.90
23081;DHT22;72373;50.562;8.498;2023-08-30T03:11:25;13.30;99.90
23081;DHT22;72373;50.562;8.498;2023-08-30T03:13:50;13.30;99.90
23081;DHT22;72373;50.562;8.498;2023-08-30T03:16:16;13.30;99.90
23081;DHT22;72373;50.562;8.498;2023-08-30T03:18:43;13.20;99.90
23081;DHT22;72373;50.562;8.498;2023-08-30T03:21:09;13.20;99.90
23081;DHT22;72373;50.562;8.498;2023-08-30T03:23:35;13.20;99.90
23081;DHT22;72373;50.562;8.498;2023-08-30T03:26:09;13.20;99.90
23081;DHT22;72373;50.562;8.498;2023-08-30T03:28:35;13.20;99.90
23081;DHT22;72373;50.562;8.498;2023-08-30T03:31:00;13.20;99.90
23081;DHT22;72373;50.562;8.498;2023-08-30T03:33:26;13.20;99.90
23081;DHT22;72373;50.562;8.498;2023-08-30T03:35:51;13.20;99.90
23081;DHT22;72373;50.562;8.498;2023-08-30T03:38:17;13.20;99.90
23081;DHT22;72373;50.562;8.498;2023-08-30T03:40:42;13.20;99.90
23081;DHT22;72373;50.562;8.498;2023-08-30T03:43:08;13.20;99.90
23081;DHT22;72373;50.562;8.498;2023-08-30T03:45:37;13.30;99.90
23081;DHT22;72373;50.562;8.498;2023-08-30T03:48:03;13.30;99.90
23081;DHT22;72373;50.562;8.498;2023-08-30T03:50:29;13.30;99.90
23081;DHT22;72373;50.562;8.498;2023-08-30T03:52:55;13.40;99.90
23081;DHT22;72373;50.562;8.498;2023-08-30T03:55:20;13.40;99.90
23081;DHT22;72373;50.562;8.498;2023-08-30T03:57:48;13.40;99.90
23081;DHT22;72373;50.562;8.498;2023-08-30T04:00:13;13.40;99.90
23081;DHT22;72373;50.562;8.498;2023-08-30T04:02:39;13.50;99.90
23081;DHT22;72373;50.562;8.498;2023-08-30T04:05:05;13.50;99.90
23081;DHT22;72373;50.562;8.498;2023-08-30T04:07:35;13.40;99.90
23081;DHT22;72373;50.562;8.498;2023-08-30T04:10:00;13.40;99.90
23081;DHT22;72373;50.562;8.498;2023-08-30T04:12:28;13.40;99.90
23081;DHT22;72373;50.562;8.498;2023-08-30T04:14:54;13.40;99.90
23081;DHT22;72373;50.562;8.498;2023-08-30T04:17:19;13.30;99.90
23081;DHT22;72373;50.562;8.498;2023-08-30T04:19:45;13.40;99.90
23081;DHT22;72373;50.562;8.498;2023-08-30T04:22:10;13.30;99.90
23081;DHT22;72373;50.562;8.498;2023-08-30T04:24:36;13.30;99.90
23081;DHT22;72373;50.562;8.498;2023-08-30T04:27:01;13.50;99.90
23081;DHT22;72373;50.562;8.498;2023-08-30T04:29:27;13.20;99.90
23081;DHT22;72373;50.562;8.498;2023-08-30T04:31:52;13.50;99.90
23081;DHT22;72373;50.562;8.498;2023-08-30T04:34:19;13.20;99.90
23081;DHT22;72373;50.562;8.498;2023-08-30T04:36:45;13.20;99.90
23081;DHT22;72373;50.562;8.498;2023-08-30T04:39:12;13.20;99.90
23081;DHT22;72373;50.562;8.498;2023-08-30T04:41:38;13.20;99.90
23081;DHT22;72373;50.562;8.498;2023-08-30T04:44:03;13.20;99.90
23081;DHT22;72373;50.562;8.498;2023-08-30T04:46:29;13.20;99.90
23081;DHT22;72373;50.562;8.498;2023-08-30T04:48:54;13.20;99.90
23081;DHT22;72373;50.562;8.498;2023-08-30T04:51:20;13.20;99.90
23081;DHT22;72373;50.562;8.498;2023-08-30T04:53:45;13.20;99.90
23081;DHT22;72373;50.562;8.498;2023-08-30T04:56:14;13.20;99.90
23081;DHT22;72373;50.562;8.498;2023-08-30T04:58:41;13.10;99.90
23081;DHT22;72373;50.562;8.498;2023-08-30T05:01:06;13.30;99.90
23081;DHT22;72373;50.562;8.498;2023-08-30T05:03:32;13.30;99.90
23081;DHT22;72373;50.562;8.498;2023-08-30T05:05:58;13.30;99.90
23081;DHT22;72373;50.562;8.498;2023-08-30T05:08:23;13.30;99.90
23081;DHT22;72373;50.562;8.498;2023-08-30T05:10:49;13.40;99.90
23081;DHT22;72373;50.562;8.498;2023-08-30T05:13:16;13.40;99.90
23081;DHT22;72373;50.562;8.498;2023-08-30T05:15:42;13.50;99.90
23081;DHT22;72373;50.562;8.498;2023-08-30T05:18:10;13.40;99.90
23081;DHT22;72373;50.562;8.498;2023-08-30T05:20:36;13.40;99.90
23081;DHT22;72373;50.562;8.498;2023-08-30T05:23:02;13.50;99.90
23081;DHT22;72373;50.562;8.498;2023-08-30T05:25:28;13.60;99.90
23081;DHT22;72373;50.562;8.498;2023-08-30T05:27:53;13.50;99.90
23081;DHT22;72373;50.562;8.498;2023-08-30T05:30:19;13.60;99.90
23081;DHT22;72373;50.562;8.498;2023-08-30T05:32:44;13.60;99.90
23081;DHT22;72373;50.562;8.498;2023-08-30T05:35:10;13.60;99.90
23081;DHT22;72373;50.562;8.498;2023-08-30T05:37:36;13.70;99.90
23081;DHT22;72373;50.562;8.498;2023-08-30T05:40:01;13.70;99.90
23081;DHT22;72373;50.562;8.498;2023-08-30T05:42:28;13.80;99.90
23081;DHT22;72373;50.562;8.498;2023-08-30T05:44:53;13.80;99.90
23081;DHT22;72373;50.562;8.498;2023-08-30T05:47:20;13.80;99.90
23081;DHT22;72373;50.562;8.498;2023-08-30T05:49:46;13.70;99.90
23081;DHT22;72373;50.562;8.498;2023-08-30T05:52:11;13.80;99.90
23081;DHT22;72373;50.562;8.498;2023-08-30T05:54:37;13.90;99.90
23081;DHT22;72373;50.562;8.498;2023-08-30T05:57:02;13.80;99.90
23081;DHT22;72373;50.562;8.498;2023-08-30T05:59:28;13.80;99.90
23081;DHT22;72373;50.562;8.498;2023-08-30T06:01:54;13.80;99.90
23081;DHT22;72373;50.562;8.498;2023-08-30T06:04:19;13.90;99.90
23081;DHT22;72373;50.562;8.498;2023-08-30T06:06:45;14.00;99.90
23081;DHT22;72373;50.562;8.498;2023-08-30T06:09:11;14.10;99.90
23081;DHT22;72373;50.562;8.498;2023-08-30T06:11:38;14.00;99.90
23081;DHT22;72373;50.562;8.498;2023-08-30T06:14:04;14.10;99.90
23081;DHT22;72373;50.562;8.498;2023-08-30T06:16:30;14.20;99.90
23081;DHT22;72373;50.562;8.498;2023-08-30T06:18:55;14.20;99.90
23081;DHT22;72373;50.562;8.498;2023-08-30T06:21:21;14.60;99.90
23081;DHT22;72373;50.562;8.498;2023-08-30T06:23:46;14.50;99.90
23081;DHT22;72373;50.562;8.498;2023-08-30T06:26:12;14.60;99.90
23081;DHT22;72373;50.562;8.498;2023-08-30T06:28:37;14.60;99.90
23081;DHT22;72373;50.562;8.498;2023-08-30T06:31:03;14.60;99.90
23081;DHT22;72373;50.562;8.498;2023-08-30T06:33:28;14.60;99.90
23081;DHT22;72373;50.562;8.498;2023-08-30T06:35:54;14.60;99.90
23081;DHT22;72373;50.562;8.498;2023-08-30T06:38:21;14.60;99.90
23081;DHT22;72373;50.562;8.498;2023-08-30T06:40:47;14.70;99.90
23081;DHT22;72373;50.562;8.498;2023-08-30T06:43:13;14.80;99.90
23081;DHT22;72373;50.562;8.498;2023-08-30T06:45:38;14.80;99.90
23081;DHT22;72373;50.562;8.498;2023-08-30T06:48:06;14.90;99.90
23081;DHT22;72373;50.562;8.498;2023-08-30T06:50:31;14.80;99.90
23081;DHT22;72373;50.562;8.498;2023-08-30T06:52:57;14.90;99.90
23081;DHT22;72373;50.562;8.498;2023-08-30T06:55:23;14.70;99.90
23081;DHT22;72373;50.562;8.498;2023-08-30T06:57:48;14.80;99.90
23081;DHT22;72373;50.562;8.498;2023-08-30T07:00:17;14.80;99.90
23081;DHT22;72373;50.562;8.498;2023-08-30T07:02:43;14.80;99.90
23081;DHT22;72373;50.562;8.498;2023-08-30T07:05:11;15.00;99.90
23081;DHT22;72373;50.562;8.498;2023-08-30T07:07:37;15.20;99.90
23081;DHT22;72373;50.562;8.498;2023-08-30T07:10:02;15.40;99.90
23081;DHT22;72373;50.562;8.498;2023-08-30T07:12:28;15.60;99.90
23081;DHT22;72373;50.562;8.498;2023-08-30T07:14:54;15.70;99.90
23081;DHT22;72373;50.562;8.498;2023-08-30T07:17:20;16.00;99.90
23081;DHT22;72373;50.562;8.498;2023-08-30T07:19:45;16.20;99.90
23081;DHT22;72373;50.562;8.498;2023-08-30T07:22:11;16.40;99.90
23081;DHT22;72373;50.562;8.498;2023-08-30T07:24:36;16.70;99.90
23081;DHT22;72373;50.562;8.498;2023-08-30T07:27:02;16.80;99.90
23081;DHT22;72373;50.562;8.498;2023-08-30T07:29:28;17.10;99.90
23081;DHT22;72373;50.562;8.498;2023-08-30T07:31:54;17.30;99.90
23081;DHT22;72373;50.562;8.498;2023-08-30T07:34:20;17.40;99.90
23081;DHT22;72373;50.562;8.498;2023-08-30T07:36:45;17.50;99.90
23081;DHT22;72373;50.562;8.498;2023-08-30T07:39:12;17.50;99.90
23081;DHT22;72373;50.562;8.498;2023-08-30T07:41:38;17.60;99.90
23081;DHT22;72373;50.562;8.498;2023-08-30T07:44:05;17.80;99.90
23081;DHT22;72373;50.562;8.498;2023-08-30T07:46:31;18.00;99.90
23081;DHT22;72373;50.562;8.498;2023-08-30T07:48:56;18.10;99.90
23081;DHT22;72373;50.562;8.498;2023-08-30T07:51:23;17.90;99.90
23081;DHT22;72373;50.562;8.498;2023-08-30T07:53:49;17.90;99.90
23081;DHT22;72373;50.562;8.498;2023-08-30T07:56:14;18.00;99.90
23081;DHT22;72373;50.562;8.498;2023-08-30T07:58:41;18.40;99.90
23081;DHT22;72373;50.562;8.498;2023-08-30T08:01:07;18.20;99.90
23081;DHT22;72373;50.562;8.498;2023-08-30T08:03:33;17.90;99.90
23081;DHT22;72373;50.562;8.498;2023-08-30T08:06:00;18.00;99.90
23081;DHT22;72373;50.562;8.498;2023-08-30T08:08:26;18.10;99.90
23081;DHT22;72373;50.562;8.498;2023-08-30T08:10:51;18.30;99.90
23081;DHT22;72373;50.562;8.498;2023-08-30T08:13:18;18.60;99.90
23081;DHT22;72373;50.562;8.498;2023-08-30T08:15:44;18.80;99.90
23081;DHT22;72373;50.562;8.498;2023-08-30T08:18:11;18.70;99.90
23081;DHT22;72373;50.562;8.498;2023-08-30T08:20:36;18.70;99.90
23081;DHT22;72373;50.562;8.498;2023-08-30T08:23:03;18.80;99.90
23081;DHT22;72373;50.562;8.498;2023-08-30T08:25:29;18.70;99.90
23081;DHT22;72373;50.562;8.498;2023-08-30T08:27:55;18.40;99.90
23081;DHT22;72373;50.562;8.498;2023-08-30T08:30:20;18.30;99.90
23081;DHT22;72373;50.562;8.498;2023-08-30T08:32:46;18.40;99.90
23081;DHT22;72373;50.562;8.498;2023-08-30T08:35:13;18.60;99.90
23081;DHT22;72373;50.562;8.498;2023-08-30T08:37:39;18.80;99.90
23081;DHT22;72373;50.562;8.498;2023-08-30T08:40:05;19.30;99.90
23081;DHT22;72373;50.562;8.498;2023-08-30T08:42:34;19.40;99.90
23081;DHT22;72373;50.562;8.498;2023-08-30T08:45:03;19.50;99.90
23081;DHT22;72373;50.562;8.498;2023-08-30T08:47:32;19.70;99.90
23081;DHT22;72373;50.562;8.498;2023-08-30T08:49:59;20.40;99.90
23081;DHT22;72373;50.562;8.498;2023-08-30T08:52:25;20.10;99.90
23081;DHT22;72373;50.562;8.498;2023-08-30T08:54:52;19.90;99.90
23081;DHT22;72373;50.562;8.498;2023-08-30T08:57:19;19.90;99.90
23081;DHT22;72373;50.562;8.498;2023-08-30T08:59:44;19.90;99.90
23081;DHT22;72373;50.562;8.498;2023-08-30T09:02:13;19.80;99.90
23081;DHT22;72373;50.562;8.498;2023-08-30T09:04:39;19.90;99.90
23081;DHT22;72373;50.562;8.498;2023-08-30T09:07:05;20.10;99.90
23081;DHT22;72373;50.562;8.498;2023-08-30T09:09:31;20.20;99.90
23081;DHT22;72373;50.562;8.498;2023-08-30T09:11:58;20.30;99.90
23081;DHT22;72373;50.562;8.498;2023-08-30T09:14:23;20.50;99.90
23081;DHT22;72373;50.562;8.498;2023-08-30T09:16:55;20.20;99.90
23081;DHT22;72373;50.562;8.498;2023-08-30T09:19:21;20.40;99.90
23081;DHT22;72373;50.562;8.498;2023-08-30T09:22:13;20.60;99.90
23081;DHT22;72373;50.562;8.498;2023-08-30T09:24:40;20.80;99.90
23081;DHT22;72373;50.562;8.498;2023-08-30T09:27:06;21.60;99.90
23081;DHT22;72373;50.562;8.498;2023-08-30T09:29:32;21.30;99.90
23081;DHT22;72373;50.562;8.498;2023-08-30T09:31:58;21.60;99.90
23081;DHT22;72373;50.562;8.498;2023-08-30T09:34:24;21.70;99.90
23081;DHT22;72373;50.562;8.498;2023-08-30T09:36:51;21.90;99.90
23081;DHT22;72373;50.562;8.498;2023-08-30T09:39:17;21.90;99.90
23081;DHT22;72373;50.562;8.498;2023-08-30T09:41:50;21.90;99.90
23081;DHT22;72373;50.562;8.498;2023-08-30T09:44:20;22.00;99.90
23081;DHT22;72373;50.562;8.498;2023-08-30T09:46:54;22.00;99.90
23081;DHT22;72373;50.562;8.498;2023-08-30T09:49:24;21.90;99.90
23081;DHT22;72373;50.562;8.498;2023-08-30T09:51:52;21.90;99.90
23081;DHT22;72373;50.562;8.498;2023-08-30T09:54:19;22.20;99.90
23081;DHT22;72373;50.562;8.498;2023-08-30T09:56:45;22.60;99.90
23081;DHT22;72373;50.562;8.498;2023-08-30T09:59:13;22.80;99.90
23081;DHT22;72373;50.562;8.498;2023-08-30T10:01:40;22.90;99.90
23081;DHT22;72373;50.562;8.498;2023-08-30T10:04:10;22.70;99.90
23081;DHT22;72373;50.562;8.498;2023-08-30T10:06:37;22.60;99.90
23081;DHT22;72373;50.562;8.498;2023-08-30T10:09:03;21.90;99.90
23081;DHT22;72373;50.562;8.498;2023-08-30T10:11:32;20.90;99.90
23081;DHT22;72373;50.562;8.498;2023-08-30T10:14:00;21.00;99.90
23081;DHT22;72373;50.562;8.498;2023-08-30T10:16:27;20.50;99.90
23081;DHT22;72373;50.562;8.498;2023-08-30T10:19:02;21.10;99.90
23081;DHT22;72373;50.562;8.498;2023-08-30T10:21:29;21.50;99.90
23081;DHT22;72373;50.562;8.498;2023-08-30T10:23:56;22.30;99.90
23081;DHT22;72373;50.562;8.498;2023-08-30T10:26:24;23.00;99.90
23081;DHT22;72373;50.562;8.498;2023-08-30T10:28:53;23.20;99.90
23081;DHT22;72373;50.562;8.498;2023-08-30T10:31:19;23.10;99.90
23081;DHT22;72373;50.562;8.498;2023-08-30T10:33:49;23.50;99.90
23081;DHT22;72373;50.562;8.498;2023-08-30T10:36:24;23.70;99.90
23081;DHT22;72373;50.562;8.498;2023-08-30T10:38:54;24.80;99.90
23081;DHT22;72373;50.562;8.498;2023-08-30T10:41:24;26.90;99.90
23081;DHT22;72373;50.562;8.498;2023-08-30T10:43:52;26.40;99.90
23081;DHT22;72373;50.562;8.498;2023-08-30T10:46:31;26.80;99.90
23081;DHT22;72373;50.562;8.498;2023-08-30T10:49:08;26.50;99.90
23081;DHT22;72373;50.562;8.498;2023-08-30T10:51:39;25.70;99.90
23081;DHT22;72373;50.562;8.498;2023-08-30T10:54:15;25.10;99.90
23081;DHT22;72373;50.562;8.498;2023-08-30T10:56:58;24.50;99.90
23081;DHT22;72373;50.562;8.498;2023-08-30T10:59:24;24.00;99.90
23081;DHT22;72373;50.562;8.498;2023-08-30T11:01:51;24.10;99.90
23081;DHT22;72373;50.562;8.498;2023-08-30T11:04:18;24.10;99.90
23081;DHT22;72373;50.562;8.498;2023-08-30T11:06:44;23.70;99.90
23081;DHT22;72373;50.562;8.498;2023-08-30T11:09:15;23.50;99.90
23081;DHT22;72373;50.562;8.498;2023-08-30T11:11:43;23.60;99.90
23081;DHT22;72373;50.562;8.498;2023-08-30T11:14:09;24.70;99.90
23081;DHT22;72373;50.562;8.498;2023-08-30T11:16:36;25.90;99.90
23081;DHT22;72373;50.562;8.498;2023-08-30T11:19:06;26.40;99.90
23081;DHT22;72373;50.562;8.498;2023-08-30T11:21:33;26.10;99.90
23081;DHT22;72373;50.562;8.498;2023-08-30T11:23:59;25.40;99.90
23081;DHT22;72373;50.562;8.498;2023-08-30T11:26:25;24.70;99.90
23081;DHT22;72373;50.562;8.498;2023-08-30T11:28:51;24.60;99.90
23081;DHT22;72373;50.562;8.498;2023-08-30T11:31:22;24.80;99.90
23081;DHT22;72373;50.562;8.498;2023-08-30T11:33:55;24.80;99.90
23081;DHT22;72373;50.562;8.498;2023-08-30T11:36:23;24.60;99.90
23081;DHT22;72373;50.562;8.498;2023-08-30T11:38:49;24.30;99.90
23081;DHT22;72373;50.562;8.498;2023-08-30T11:41:15;24.00;99.90
23081;DHT22;72373;50.562;8.498;2023-08-30T11:43:41;23.90;99.90
23081;DHT22;72373;50.562;8.498;2023-08-30T11:46:08;24.00;99.90
23081;DHT22;72373;50.562;8.498;2023-08-30T11:48:34;24.30;99.90
23081;DHT22;72373;50.562;8.498;2023-08-30T11:51:00;24.30;99.90
23081;DHT22;72373;50.562;8.498;2023-08-30T11:53:26;24.60;99.90
23081;DHT22;72373;50.562;8.498;2023-08-30T11:55:53;25.10;99.90
23081;DHT22;72373;50.562;8.498;2023-08-30T11:58:18;26.00;99.90
23081;DHT22;72373;50.562;8.498;2023-08-30T12:00:45;26.90;99.90
23081;DHT22;72373;50.562;8.498;2023-08-30T12:03:13;28.50;99.90
23081;DHT22;72373;50.562;8.498;2023-08-30T12:05:47;29.30;99.90
23081;DHT22;72373;50.562;8.498;2023-08-30T12:08:20;29.40;99.90
23081;DHT22;72373;50.562;8.498;2023-08-30T12:10:46;29.60;99.40
23081;DHT22;72373;50.562;8.498;2023-08-30T12:15:54;29.00;97.30
23081;DHT22;72373;50.562;8.498;2023-08-30T12:18:24;29.10;97.20
23081;DHT22;72373;50.562;8.498;2023-08-30T12:21:02;29.70;95.20
23081;DHT22;72373;50.562;8.498;2023-08-30T12:23:32;28.60;95.30
23081;DHT22;72373;50.562;8.498;2023-08-30T12:26:08;28.40;97.50
23081;DHT22;72373;50.562;8.498;2023-08-30T12:28:41;28.60;96.60
23081;DHT22;72373;50.562;8.498;2023-08-30T12:31:09;28.30;97.40
23081;DHT22;72373;50.562;8.498;2023-08-30T12:33:36;28.40;96.70
23081;DHT22;72373;50.562;8.498;2023-08-30T12:36:03;28.50;97.60
23081;DHT22;72373;50.562;8.498;2023-08-30T12:38:29;28.70;96.10
23081;DHT22;72373;50.562;8.498;2023-08-30T12:40:56;29.10;96.10
23081;DHT22;72373;50.562;8.498;2023-08-30T12:43:23;29.70;94.20
23081;DHT22;72373;50.562;8.498;2023-08-30T12:45:49;30.00;93.90
23081;DHT22;72373;50.562;8.498;2023-08-30T12:48:16;30.20;93.00
23081;DHT22;72373;50.562;8.498;2023-08-30T12:50:44;29.40;92.20
23081;DHT22;72373;50.562;8.498;2023-08-30T12:53:10;28.90;92.90
23081;DHT22;72373;50.562;8.498;2023-08-30T12:55:36;28.70;93.00
23081;DHT22;72373;50.562;8.498;2023-08-30T12:58:02;27.80;94.10
23081;DHT22;72373;50.562;8.498;2023-08-30T13:00:30;27.20;96.20
23081;DHT22;72373;50.562;8.498;2023-08-30T13:02:55;26.70;96.40
23081;DHT22;72373;50.562;8.498;2023-08-30T13:05:21;26.20;97.60
23081;DHT22;72373;50.562;8.498;2023-08-30T13:07:47;25.40;99.00
23081;DHT22;72373;50.562;8.498;2023-08-30T13:10:13;24.70;99.90
23081;DHT22;72373;50.562;8.498;2023-08-30T13:12:40;24.10;99.90
23081;DHT22;72373;50.562;8.498;2023-08-30T13:15:06;23.80;99.90
23081;DHT22;72373;50.562;8.498;2023-08-30T13:17:31;23.70;99.90
23081;DHT22;72373;50.562;8.498;2023-08-30T13:19:57;23.40;99.90
23081;DHT22;72373;50.562;8.498;2023-08-30T13:22:26;23.20;99.90
23081;DHT22;72373;50.562;8.498;2023-08-30T13:24:52;23.00;99.90
23081;DHT22;72373;50.562;8.498;2023-08-30T13:27:18;22.90;99.90
23081;DHT22;72373;50.562;8.498;2023-08-30T13:29:43;22.90;99.90
23081;DHT22;72373;50.562;8.498;2023-08-30T13:32:09;23.10;99.90
23081;DHT22;72373;50.562;8.498;2023-08-30T13:34:34;23.30;99.90
23081;DHT22;72373;50.562;8.498;2023-08-30T13:37:00;23.40;99.90
23081;DHT22;72373;50.562;8.498;2023-08-30T13:39:25;23.40;99.90
23081;DHT22;72373;50.562;8.498;2023-08-30T13:41:51;23.40;99.90
23081;DHT22;72373;50.562;8.498;2023-08-30T13:44:16;23.20;99.90
23081;DHT22;72373;50.562;8.498;2023-08-30T13:46:44;23.10;99.90
23081;DHT22;72373;50.562;8.498;2023-08-30T13:49:10;23.10;99.90
23081;DHT22;72373;50.562;8.498;2023-08-30T13:51:35;22.90;99.90
23081;DHT22;72373;50.562;8.498;2023-08-30T13:54:02;22.90;99.90
23081;DHT22;72373;50.562;8.498;2023-08-30T13:56:27;22.80;99.90
23081;DHT22;72373;50.562;8.498;2023-08-30T13:58:55;22.80;99.90
23081;DHT22;72373;50.562;8.498;2023-08-30T14:01:21;22.70;99.90
23081;DHT22;72373;50.562;8.498;2023-08-30T14:03:46;22.60;99.90
23081;DHT22;72373;50.562;8.498;2023-08-30T14:06:12;22.60;99.90
23081;DHT22;72373;50.562;8.498;2023-08-30T14:08:37;22.50;99.90
23081;DHT22;72373;50.562;8.498;2023-08-30T14:11:03;22.50;99.90
23081;DHT22;72373;50.562;8.498;2023-08-30T14:13:29;22.60;99.90
23081;DHT22;72373;50.562;8.498;2023-08-30T14:15:58;22.90;99.90
23081;DHT22;72373;50.562;8.498;2023-08-30T14:18:24;22.90;99.90
23081;DHT22;72373;50.562;8.498;2023-08-30T14:20:50;22.80;99.90
23081;DHT22;72373;50.562;8.498;2023-08-30T14:23:15;22.80;99.90
23081;DHT22;72373;50.562;8.498;2023-08-30T14:25:41;22.80;99.90
23081;DHT22;72373;50.562;8.498;2023-08-30T14:28:07;22.70;99.90
23081;DHT22;72373;50.562;8.498;2023-08-30T14:30:32;22.70;99.90
23081;DHT22;72373;50.562;8.498;2023-08-30T14:33:00;22.60;99.90
23081;DHT22;72373;50.562;8.498;2023-08-30T14:35:26;22.70;99.90
23081;DHT22;72373;50.562;8.498;2023-08-30T14:37:52;22.60;99.90
23081;DHT22;72373;50.562;8.498;2023-08-30T14:40:18;22.40;99.90
23081;DHT22;72373;50.562;8.498;2023-08-30T14:42:43;22.20;99.90
23081;DHT22;72373;50.562;8.498;2023-08-30T14:45:09;22.00;99.90
23081;DHT22;72373;50.562;8.498;2023-08-30T14:47:35;21.80;99.90
23081;DHT22;72373;50.562;8.498;2023-08-30T14:50:01;21.80;99.90
23081;DHT22;72373;50.562;8.498;2023-08-30T14:52:28;21.80;99.90
23081;DHT22;72373;50.562;8.498;2023-08-30T14:54:56;21.70;99.90
23081;DHT22;72373;50.562;8.498;2023-08-30T14:57:22;21.90;99.90
23081;DHT22;72373;50.562;8.498;2023-08-30T14:59:48;21.80;99.90
23081;DHT22;72373;50.562;8.498;2023-08-30T15:02:14;21.70;99.90
23081;DHT22;72373;50.562;8.498;2023-08-30T15:04:40;21.70;99.90
23081;DHT22;72373;50.562;8.498;2023-08-30T15:07:05;22.20;99.90
23081;DHT22;72373;50.562;8.498;2023-08-30T15:09:31;22.00;99.90
23081;DHT22;72373;50.562;8.498;2023-08-30T15:11:57;22.20;99.90
23081;DHT22;72373;50.562;8.498;2023-08-30T15:14:24;22.30;99.90
23081;DHT22;72373;50.562;8.498;2023-08-30T15:16:49;22.30;99.90
23081;DHT22;72373;50.562;8.498;2023-08-30T15:19:15;21.90;99.90
23081;DHT22;72373;50.562;8.498;2023-08-30T15:21:41;21.80;99.90
23081;DHT22;72373;50.562;8.498;2023-08-30T15:24:06;21.80;99.90
23081;DHT22;72373;50.562;8.498;2023-08-30T15:26:32;21.80;99.90
23081;DHT22;72373;50.562;8.498;2023-08-30T15:28:57;21.80;99.90
23081;DHT22;72373;50.562;8.498;2023-08-30T15:31:23;21.70;99.90
23081;DHT22;72373;50.562;8.498;2023-08-30T15:33:48;21.50;99.90
23081;DHT22;72373;50.562;8.498;2023-08-30T15:36:14;21.50;99.90
23081;DHT22;72373;50.562;8.498;2023-08-30T15:38:39;21.50;99.90
23081;DHT22;72373;50.562;8.498;2023-08-30T15:41:09;21.40;99.90